Pagina principală
METAR-TAF:

METAR-TAF

Aeroporturi :

Valledupar, Columbia

Latitudine: 10-26N, longitudine: 073-15W, elevație: 138 m

Observații meteo curente

Raportul a fost făcut în urmă cu 45 de minute, la 15:00 UTC
Vânt 7 kt de la Est/Nord-est, variabil între Nord/Nord-est și Est
Temperatură 33°C
Umiditate 59%
Presiune 1012 hPa
Vizibilitate de 10 km sau mai mult
Nori puțini la o înălțime de 1500 picior

METAR: SKVP 171500Z 06007KT 020V080 9999 FEW015 33/24 Q1012

Ora: 10:45 (15:45 UTC)


TAF: lipsă

Observații și prognoze meteo pentru peste 4.000 de aeroporturi (rapoarte METAR și TAF).

Stațiile disponibile sunt reprezentate pe hartă prin puncte galbene și roșii.

Țineți indicatorul mouse-ului pe punctul dorit pentru a vedea denumirea stației.

Apoi, faceți clic pentru a vedea observațiile și prognozele meteorologice.

Pentru a schimba harta: Pentru mărire, faceți clic pe butoanele verzi cu cruce neagră; pentru micșorare, pe butonul verde cu o liniuță; pentru hărți învecinate, pe săgețile verzi.


METAR-TAF: